Date,TemperatureHighF,TemperatureAvgF,TemperatureLowF,DewpointHighF,DewpointAvgF,DewpointLowF,HumidityHigh,HumidityAvg,HumidityLow,PressureMaxIn,PressureMinIn,WindSpeedMaxMPH,WindSpeedAvgMPH,GustSpeedMaxMPH,PrecipitationSumIn
2013-3-1,23.0,11.4,-0.6,11.3,1.0,-9.6,77,63,54,29.79,29.35,8,1,10,0.00
2013-3-2,21.2,1.6,-13.7,7.8,-7.4,-18.9,77,66,53,29.94,29.79,7,2,8,0.00
2013-3-3,36.3,13.5,-11.7,18.7,-2.0,-22.7,88,50,40,30.18,29.91,27,8,37,0.00
2013-3-4,39.0,32.2,28.0,16.7,11.7,8.7,44,42,40,30.26,30.03,26,14,36,0.00
2013-3-5,40.5,28.6,11.7,20.4,11.0,0.1,86,48,40,30.06,29.67,23,10,35,0.00
2013-3-6,37.9,28.5,8.6,17.2,11.3,-6.7,72,48,43,29.73,29.59,29,12,39,0.00
2013-3-7,41.0,37.0,32.4,18.9,16.0,13.6,49,42,39,29.59,29.26,42,19,55,0.00
2013-3-8,43.2,39.1,35.1,24.8,18.5,15.3,66,43,39,29.53,29.32,33,15,60,0.00
2013-3-9,40.5,34.5,26.8,25.0,19.5,17.1,79,55,44,29.88,29.53,24,10,37,0.00
2013-3-10,33.1,25.1,15.1,20.5,13.9,1.8,81,63,47,30.15,29.85,9,2,12,0.00
2013-3-11,23.9,19.6,5.4,17.4,11.5,-1.8,87,71,57,30.35,30.15,10,3,12,0.00
2013-3-12,25.3,7.5,-11.2,7.7,-4.0,-22.0,73,60,45,30.35,30.09,8,2,12,0.00
2013-3-13,20.5,1.7,-16.1,-0.3,-21.7,-36.6,48,35,14,30.12,29.88,5,3,6,0.00
2013-3-14,21.9,-2.6,-28.3,-1.6,-29.2,-56.7,41,27,19,29.91,29.76,3,3,3,0.00
2013-3-15,21.0,-3.3,-23.4,-3.2,-24.1,-41.4,41,35,22,29.82,29.65,3,3,3,0.00
2013-3-16,23.7,-1.6,-22.2,-0.6,-22.8,-41.7,44,35,32,30.00,29.67,8,3,12,0.00
2013-3-17,24.8,0.1,-22.0,0.1,-20.6,-40.6,45,36,32,30.09,29.97,2,2,4,0.00
2013-3-18,24.4,4.7,-16.4,4.0,-14.8,-35.0,47,39,37,30.00,29.79,2,2,4,0.00
2013-3-19,19.0,0.1,-20.6,-2.1,-18.2,-36.1,44,41,34,29.97,29.85,2,2,4,0.00
2013-3-20,16.5,3.3,-13.0,-2.3,-15.0,-31.0,46,41,39,29.88,29.70,9,2,10,0.00
2013-3-21,21.2,12.0,3.6,-0.5,-7.1,-13.1,46,41,35,29.91,29.79,28,10,38,0.00
2013-3-22,30.6,21.3,15.4,15.9,4.3,-4.7,74,48,39,29.82,29.53,34,18,46,0.00
2013-3-23,17.4,3.6,-20.7,10.5,-6.9,-35.1,76,62,46,29.85,29.59,12,8,12,0.00
2013-3-24,14.9,-5.3,-27.0,-1.5,-20.6,-40.9,48,46,46,29.79,29.59,8,8,8,0.00
2013-3-25,12.0,3.7,-4.9,-4.6,-12.0,-20.0,47,47,47,29.62,29.44,21,6,21,0.00
2013-3-26,9.1,-3.7,-18.4,-7.0,-18.9,-32.5,47,47,47,29.97,29.62,8,6,9,0.00
2013-3-27,16.9,-7.3,-32.3,-5.7,-25.0,-45.4,47,42,35,30.03,29.88,27,8,39,0.00
2013-3-28,30.4,22.2,12.6,9.8,2.1,-11.0,48,41,34,29.91,29.67,32,20,51,0.00
2013-3-29,44.1,33.7,26.6,20.7,14.8,9.2,50,46,39,29.76,29.67,32,15,45,0.00
2013-3-30,43.7,33.8,21.7,21.6,17.0,10.2,69,50,40,30.03,29.73,20,6,25,0.00
2013-3-31,44.8,31.6,22.1,26.6,19.4,12.5,85,62,39,30.09,29.94,11,3,14,0.00